sensor_id;sensor_type;location;lat;lon;timestamp;temperature;humidity
51661;DHT22;37741;49.748;8.490;2023-04-03T00:00:49;7.40;71.80
51661;DHT22;37741;49.748;8.490;2023-04-03T00:03:15;7.40;71.70
51661;DHT22;37741;49.748;8.490;2023-04-03T00:05:41;7.30;71.70
51661;DHT22;37741;49.748;8.490;2023-04-03T00:08:07;7.30;71.60
51661;DHT22;37741;49.748;8.490;2023-04-03T00:10:35;7.30;71.70
51661;DHT22;37741;49.748;8.490;2023-04-03T00:13:02;7.30;71.80
51661;DHT22;37741;49.748;8.490;2023-04-03T00:15:27;7.30;71.90
51661;DHT22;37741;49.748;8.490;2023-04-03T00:17:53;7.20;71.80
51661;DHT22;37741;49.748;8.490;2023-04-03T00:20:19;7.30;72.00
51661;DHT22;37741;49.748;8.490;2023-04-03T00:22:44;7.20;72.00
51661;DHT22;37741;49.748;8.490;2023-04-03T00:25:11;7.20;72.00
51661;DHT22;37741;49.748;8.490;2023-04-03T00:27:38;7.20;72.10
51661;DHT22;37741;49.748;8.490;2023-04-03T00:30:05;7.20;72.10
51661;DHT22;37741;49.748;8.490;2023-04-03T00:32:31;7.20;72.10
51661;DHT22;37741;49.748;8.490;2023-04-03T00:34:56;7.20;72.10
51661;DHT22;37741;49.748;8.490;2023-04-03T00:37:22;7.10;72.10
51661;DHT22;37741;49.748;8.490;2023-04-03T00:39:48;7.10;72.10
51661;DHT22;37741;49.748;8.490;2023-04-03T00:42:13;7.10;72.10
51661;DHT22;37741;49.748;8.490;2023-04-03T00:47:06;7.10;72.30
51661;DHT22;37741;49.748;8.490;2023-04-03T00:49:33;7.00;72.20
51661;DHT22;37741;49.748;8.490;2023-04-03T00:51:59;7.00;72.30
51661;DHT22;37741;49.748;8.490;2023-04-03T00:54:26;7.00;72.30
51661;DHT22;37741;49.748;8.490;2023-04-03T00:56:53;7.00;72.30
51661;DHT22;37741;49.748;8.490;2023-04-03T00:59:25;7.00;72.30
51661;DHT22;37741;49.748;8.490;2023-04-03T01:01:53;7.00;72.40
51661;DHT22;37741;49.748;8.490;2023-04-03T01:04:30;6.90;72.40
51661;DHT22;37741;49.748;8.490;2023-04-03T01:06:57;6.90;72.40
51661;DHT22;37741;49.748;8.490;2023-04-03T01:09:25;6.90;72.40
51661;DHT22;37741;49.748;8.490;2023-04-03T01:11:51;6.90;72.40
51661;DHT22;37741;49.748;8.490;2023-04-03T01:14:17;6.90;72.50
51661;DHT22;37741;49.748;8.490;2023-04-03T01:16:42;6.90;72.50
51661;DHT22;37741;49.748;8.490;2023-04-03T01:19:11;6.90;72.50
51661;DHT22;37741;49.748;8.490;2023-04-03T01:22:02;6.80;72.40
51661;DHT22;37741;49.748;8.490;2023-04-03T01:24:38;6.80;72.50
51661;DHT22;37741;49.748;8.490;2023-04-03T01:27:06;6.80;72.50
51661;DHT22;37741;49.748;8.490;2023-04-03T01:29:33;6.80;72.40
51661;DHT22;37741;49.748;8.490;2023-04-03T01:32:00;6.80;72.40
51661;DHT22;37741;49.748;8.490;2023-04-03T01:34:27;6.80;72.60
51661;DHT22;37741;49.748;8.490;2023-04-03T01:36:53;6.80;72.50
51661;DHT22;37741;49.748;8.490;2023-04-03T01:39:18;6.70;72.50
51661;DHT22;37741;49.748;8.490;2023-04-03T01:41:45;6.70;72.50
51661;DHT22;37741;49.748;8.490;2023-04-03T01:44:11;6.70;72.40
51661;DHT22;37741;49.748;8.490;2023-04-03T01:46:37;6.70;72.50
51661;DHT22;37741;49.748;8.490;2023-04-03T01:49:03;6.70;72.40
51661;DHT22;37741;49.748;8.490;2023-04-03T01:51:30;6.70;72.50
51661;DHT22;37741;49.748;8.490;2023-04-03T01:53:55;6.60;72.40
51661;DHT22;37741;49.748;8.490;2023-04-03T01:56:21;6.60;72.50
51661;DHT22;37741;49.748;8.490;2023-04-03T01:58:47;6.60;72.60
51661;DHT22;37741;49.748;8.490;2023-04-03T02:01:13;6.60;72.60
51661;DHT22;37741;49.748;8.490;2023-04-03T02:03:39;6.60;72.60
51661;DHT22;37741;49.748;8.490;2023-04-03T02:06:04;6.60;72.60
51661;DHT22;37741;49.748;8.490;2023-04-03T02:08:30;6.50;72.60
51661;DHT22;37741;49.748;8.490;2023-04-03T02:10:56;6.50;72.70
51661;DHT22;37741;49.748;8.490;2023-04-03T02:13:21;6.50;72.70
51661;DHT22;37741;49.748;8.490;2023-04-03T02:15:47;6.50;72.80
51661;DHT22;37741;49.748;8.490;2023-04-03T02:18:13;6.50;72.80
51661;DHT22;37741;49.748;8.490;2023-04-03T02:20:39;6.50;72.80
51661;DHT22;37741;49.748;8.490;2023-04-03T02:23:05;6.40;72.90
51661;DHT22;37741;49.748;8.490;2023-04-03T02:25:32;6.50;73.00
51661;DHT22;37741;49.748;8.490;2023-04-03T02:27:57;6.40;72.90
51661;DHT22;37741;49.748;8.490;2023-04-03T02:30:23;6.40;73.10
51661;DHT22;37741;49.748;8.490;2023-04-03T02:32:49;6.40;73.00
51661;DHT22;37741;49.748;8.490;2023-04-03T02:35:15;6.40;73.10
51661;DHT22;37741;49.748;8.490;2023-04-03T02:37:40;6.40;73.10
51661;DHT22;37741;49.748;8.490;2023-04-03T02:40:08;6.40;73.10
51661;DHT22;37741;49.748;8.490;2023-04-03T02:42:33;6.30;73.20
51661;DHT22;37741;49.748;8.490;2023-04-03T02:44:59;6.40;73.20
51661;DHT22;37741;49.748;8.490;2023-04-03T02:47:26;6.30;73.20
51661;DHT22;37741;49.748;8.490;2023-04-03T02:49:58;6.30;73.20
51661;DHT22;37741;49.748;8.490;2023-04-03T02:52:24;6.30;73.30
51661;DHT22;37741;49.748;8.490;2023-04-03T02:54:49;6.30;73.20
51661;DHT22;37741;49.748;8.490;2023-04-03T02:57:15;6.30;73.20
51661;DHT22;37741;49.748;8.490;2023-04-03T02:59:41;6.30;73.20
51661;DHT22;37741;49.748;8.490;2023-04-03T03:02:08;6.20;73.20
51661;DHT22;37741;49.748;8.490;2023-04-03T03:04:34;6.20;73.20
51661;DHT22;37741;49.748;8.490;2023-04-03T03:07:00;6.20;73.20
51661;DHT22;37741;49.748;8.490;2023-04-03T03:09:25;6.20;73.20
51661;DHT22;37741;49.748;8.490;2023-04-03T03:11:52;6.10;73.10
51661;DHT22;37741;49.748;8.490;2023-04-03T03:14:18;6.10;73.20
51661;DHT22;37741;49.748;8.490;2023-04-03T03:16:44;6.10;73.20
51661;DHT22;37741;49.748;8.490;2023-04-03T03:19:09;6.10;73.20
51661;DHT22;37741;49.748;8.490;2023-04-03T03:21:35;6.10;73.30
51661;DHT22;37741;49.748;8.490;2023-04-03T03:24:01;6.10;73.30
51661;DHT22;37741;49.748;8.490;2023-04-03T03:26:27;6.10;73.30
51661;DHT22;37741;49.748;8.490;2023-04-03T03:28:52;6.00;73.20
51661;DHT22;37741;49.748;8.490;2023-04-03T03:31:18;6.00;73.30
51661;DHT22;37741;49.748;8.490;2023-04-03T03:33:44;6.00;73.30
51661;DHT22;37741;49.748;8.490;2023-04-03T03:36:09;6.00;73.60
51661;DHT22;37741;49.748;8.490;2023-04-03T03:38:36;6.00;73.40
51661;DHT22;37741;49.748;8.490;2023-04-03T03:41:01;6.00;73.40
51661;DHT22;37741;49.748;8.490;2023-04-03T03:43:27;6.00;73.50
51661;DHT22;37741;49.748;8.490;2023-04-03T03:45:53;5.90;73.50
51661;DHT22;37741;49.748;8.490;2023-04-03T03:48:20;5.90;73.50
51661;DHT22;37741;49.748;8.490;2023-04-03T03:50:46;5.90;73.50
51661;DHT22;37741;49.748;8.490;2023-04-03T03:53:12;5.90;73.50
51661;DHT22;37741;49.748;8.490;2023-04-03T03:55:38;5.90;73.50
51661;DHT22;37741;49.748;8.490;2023-04-03T03:58:04;5.90;73.50
51661;DHT22;37741;49.748;8.490;2023-04-03T04:00:29;5.80;73.60
51661;DHT22;37741;49.748;8.490;2023-04-03T04:02:56;5.80;73.60
51661;DHT22;37741;49.748;8.490;2023-04-03T04:05:21;5.80;73.70
51661;DHT22;37741;49.748;8.490;2023-04-03T04:07:47;5.80;73.60
51661;DHT22;37741;49.748;8.490;2023-04-03T04:10:13;5.80;73.70
51661;DHT22;37741;49.748;8.490;2023-04-03T04:12:39;5.80;73.70
51661;DHT22;37741;49.748;8.490;2023-04-03T04:15:05;5.80;73.60
51661;DHT22;37741;49.748;8.490;2023-04-03T04:17:31;5.70;73.60
51661;DHT22;37741;49.748;8.490;2023-04-03T04:19:56;5.70;73.60
51661;DHT22;37741;49.748;8.490;2023-04-03T04:22:22;5.70;73.60
51661;DHT22;37741;49.748;8.490;2023-04-03T04:24:48;5.70;73.60
51661;DHT22;37741;49.748;8.490;2023-04-03T04:27:13;5.70;73.70
51661;DHT22;37741;49.748;8.490;2023-04-03T04:29:39;5.60;73.60
51661;DHT22;37741;49.748;8.490;2023-04-03T04:32:04;5.60;73.60
51661;DHT22;37741;49.748;8.490;2023-04-03T04:34:30;5.60;73.60
51661;DHT22;37741;49.748;8.490;2023-04-03T04:36:56;5.60;73.70
51661;DHT22;37741;49.748;8.490;2023-04-03T04:39:21;5.60;73.70
51661;DHT22;37741;49.748;8.490;2023-04-03T04:41:47;5.60;73.70
51661;DHT22;37741;49.748;8.490;2023-04-03T04:44:13;5.60;73.70
51661;DHT22;37741;49.748;8.490;2023-04-03T04:46:38;5.50;73.80
51661;DHT22;37741;49.748;8.490;2023-04-03T04:49:04;5.50;73.80
51661;DHT22;37741;49.748;8.490;2023-04-03T04:51:30;5.50;73.90
51661;DHT22;37741;49.748;8.490;2023-04-03T04:53:55;5.50;73.90
51661;DHT22;37741;49.748;8.490;2023-04-03T04:56:21;5.50;74.00
51661;DHT22;37741;49.748;8.490;2023-04-03T04:58:47;5.50;74.00
51661;DHT22;37741;49.748;8.490;2023-04-03T05:01:13;5.50;74.00
51661;DHT22;37741;49.748;8.490;2023-04-03T05:03:38;5.40;74.00
51661;DHT22;37741;49.748;8.490;2023-04-03T05:06:04;5.40;74.00
51661;DHT22;37741;49.748;8.490;2023-04-03T05:08:30;5.40;74.00
51661;DHT22;37741;49.748;8.490;2023-04-03T05:10:56;5.40;74.10
51661;DHT22;37741;49.748;8.490;2023-04-03T05:13:22;5.40;74.10
51661;DHT22;37741;49.748;8.490;2023-04-03T05:15:48;5.40;74.00
51661;DHT22;37741;49.748;8.490;2023-04-03T05:18:13;5.40;74.10
51661;DHT22;37741;49.748;8.490;2023-04-03T05:20:39;5.40;74.10
51661;DHT22;37741;49.748;8.490;2023-04-03T05:23:05;5.30;74.10
51661;DHT22;37741;49.748;8.490;2023-04-03T05:25:31;5.40;74.20
51661;DHT22;37741;49.748;8.490;2023-04-03T05:27:57;5.30;74.10
51661;DHT22;37741;49.748;8.490;2023-04-03T05:30:25;5.30;74.20
51661;DHT22;37741;49.748;8.490;2023-04-03T05:33:01;5.30;74.20
51661;DHT22;37741;49.748;8.490;2023-04-03T05:35:27;5.30;74.20
51661;DHT22;37741;49.748;8.490;2023-04-03T05:37:52;5.30;74.30
51661;DHT22;37741;49.748;8.490;2023-04-03T05:40:18;5.30;74.30
51661;DHT22;37741;49.748;8.490;2023-04-03T05:42:44;5.20;74.20
51661;DHT22;37741;49.748;8.490;2023-04-03T05:45:10;5.20;74.20
51661;DHT22;37741;49.748;8.490;2023-04-03T05:47:35;5.20;74.30
51661;DHT22;37741;49.748;8.490;2023-04-03T05:50:01;5.20;74.30
51661;DHT22;37741;49.748;8.490;2023-04-03T05:54:54;5.20;74.40
51661;DHT22;37741;49.748;8.490;2023-04-03T05:57:20;5.20;74.50
51661;DHT22;37741;49.748;8.490;2023-04-03T05:59:47;5.20;74.50
51661;DHT22;37741;49.748;8.490;2023-04-03T06:02:15;5.20;74.60
51661;DHT22;37741;49.748;8.490;2023-04-03T06:04:41;5.20;74.60
51661;DHT22;37741;49.748;8.490;2023-04-03T06:07:20;5.20;74.60
51661;DHT22;37741;49.748;8.490;2023-04-03T06:09:49;5.20;74.70
51661;DHT22;37741;49.748;8.490;2023-04-03T06:12:14;5.20;74.70
51661;DHT22;37741;49.748;8.490;2023-04-03T06:14:40;5.20;74.70
51661;DHT22;37741;49.748;8.490;2023-04-03T06:17:06;5.20;74.80
51661;DHT22;37741;49.748;8.490;2023-04-03T06:19:33;5.10;74.70
51661;DHT22;37741;49.748;8.490;2023-04-03T06:21:59;5.10;74.80
51661;DHT22;37741;49.748;8.490;2023-04-03T06:24:25;5.20;74.80
51661;DHT22;37741;49.748;8.490;2023-04-03T06:26:51;5.10;74.80
51661;DHT22;37741;49.748;8.490;2023-04-03T06:29:18;5.10;75.50
51661;DHT22;37741;49.748;8.490;2023-04-03T06:31:44;5.10;74.90
51661;DHT22;37741;49.748;8.490;2023-04-03T06:34:10;5.10;75.00
51661;DHT22;37741;49.748;8.490;2023-04-03T06:36:37;5.10;75.00
51661;DHT22;37741;49.748;8.490;2023-04-03T06:39:03;5.10;75.10
51661;DHT22;37741;49.748;8.490;2023-04-03T06:41:29;5.10;75.10
51661;DHT22;37741;49.748;8.490;2023-04-03T06:43:54;5.10;75.20
51661;DHT22;37741;49.748;8.490;2023-04-03T06:46:23;5.10;75.20
51661;DHT22;37741;49.748;8.490;2023-04-03T06:48:49;5.10;75.30
51661;DHT22;37741;49.748;8.490;2023-04-03T06:51:26;5.10;75.30
51661;DHT22;37741;49.748;8.490;2023-04-03T06:53:54;5.10;75.30
51661;DHT22;37741;49.748;8.490;2023-04-03T06:56:20;5.10;75.40
51661;DHT22;37741;49.748;8.490;2023-04-03T06:58:46;5.10;75.40
51661;DHT22;37741;49.748;8.490;2023-04-03T07:01:14;5.10;75.40
51661;DHT22;37741;49.748;8.490;2023-04-03T07:03:40;5.10;75.40
51661;DHT22;37741;49.748;8.490;2023-04-03T07:06:06;5.10;75.40
51661;DHT22;37741;49.748;8.490;2023-04-03T07:08:33;5.10;76.00
51661;DHT22;37741;49.748;8.490;2023-04-03T07:10:59;5.10;75.30
51661;DHT22;37741;49.748;8.490;2023-04-03T07:13:25;5.10;75.40
51661;DHT22;37741;49.748;8.490;2023-04-03T07:15:50;5.10;75.40
51661;DHT22;37741;49.748;8.490;2023-04-03T07:18:16;5.10;75.40
51661;DHT22;37741;49.748;8.490;2023-04-03T07:20:45;5.20;75.40
51661;DHT22;37741;49.748;8.490;2023-04-03T07:23:10;5.20;75.40
51661;DHT22;37741;49.748;8.490;2023-04-03T07:25:37;5.10;75.40
51661;DHT22;37741;49.748;8.490;2023-04-03T07:28:07;5.20;75.40
51661;DHT22;37741;49.748;8.490;2023-04-03T07:30:33;5.20;75.40
51661;DHT22;37741;49.748;8.490;2023-04-03T07:32:59;5.20;75.50
51661;DHT22;37741;49.748;8.490;2023-04-03T07:35:24;5.20;75.40
51661;DHT22;37741;49.748;8.490;2023-04-03T07:37:50;5.20;75.40
51661;DHT22;37741;49.748;8.490;2023-04-03T07:40:16;5.20;75.40
51661;DHT22;37741;49.748;8.490;2023-04-03T07:42:41;5.20;75.40
51661;DHT22;37741;49.748;8.490;2023-04-03T07:45:12;5.20;75.30
51661;DHT22;37741;49.748;8.490;2023-04-03T07:47:43;5.20;75.30
51661;DHT22;37741;49.748;8.490;2023-04-03T07:50:09;5.20;75.30
51661;DHT22;37741;49.748;8.490;2023-04-03T07:52:35;5.20;75.30
51661;DHT22;37741;49.748;8.490;2023-04-03T07:55:00;5.20;75.20
51661;DHT22;37741;49.748;8.490;2023-04-03T07:57:26;5.20;75.10
51661;DHT22;37741;49.748;8.490;2023-04-03T07:59:51;5.20;75.10
51661;DHT22;37741;49.748;8.490;2023-04-03T08:02:17;5.20;75.10
51661;DHT22;37741;49.748;8.490;2023-04-03T08:04:43;5.20;75.00
51661;DHT22;37741;49.748;8.490;2023-04-03T08:07:08;5.30;75.10
51661;DHT22;37741;49.748;8.490;2023-04-03T08:09:34;5.20;75.00
51661;DHT22;37741;49.748;8.490;2023-04-03T08:12:00;5.30;75.10
51661;DHT22;37741;49.748;8.490;2023-04-03T08:14:26;5.30;74.90
51661;DHT22;37741;49.748;8.490;2023-04-03T08:16:51;5.30;74.80
51661;DHT22;37741;49.748;8.490;2023-04-03T08:19:17;5.30;74.70
51661;DHT22;37741;49.748;8.490;2023-04-03T08:21:44;5.30;74.60
51661;DHT22;37741;49.748;8.490;2023-04-03T08:24:10;5.30;74.60
51661;DHT22;37741;49.748;8.490;2023-04-03T08:26:36;5.30;74.60
51661;DHT22;37741;49.748;8.490;2023-04-03T08:29:02;5.30;74.20
51661;DHT22;37741;49.748;8.490;2023-04-03T08:31:27;5.30;74.40
51661;DHT22;37741;49.748;8.490;2023-04-03T08:33:53;5.30;74.20
51661;DHT22;37741;49.748;8.490;2023-04-03T08:36:25;5.30;74.00
51661;DHT22;37741;49.748;8.490;2023-04-03T08:38:52;5.30;74.10
51661;DHT22;37741;49.748;8.490;2023-04-03T08:41:38;5.30;73.70
51661;DHT22;37741;49.748;8.490;2023-04-03T08:49:44;5.30;73.30
51661;DHT22;37741;49.748;8.490;2023-04-03T08:52:27;5.40;73.40
51661;DHT22;37741;49.748;8.490;2023-04-03T08:55:00;5.40;73.20
51661;DHT22;37741;49.748;8.490;2023-04-03T08:57:33;5.40;73.10
51661;DHT22;37741;49.748;8.490;2023-04-03T09:00:06;5.40;70.90
51661;DHT22;37741;49.748;8.490;2023-04-03T09:02:43;5.40;71.20
51661;DHT22;37741;49.748;8.490;2023-04-03T09:05:16;5.40;71.80
51661;DHT22;37741;49.748;8.490;2023-04-03T09:07:47;5.40;72.10
51661;DHT22;37741;49.748;8.490;2023-04-03T09:10:14;5.40;72.20
51661;DHT22;37741;49.748;8.490;2023-04-03T09:12:48;5.50;72.20
51661;DHT22;37741;49.748;8.490;2023-04-03T09:15:23;5.50;72.30
51661;DHT22;37741;49.748;8.490;2023-04-03T09:18:21;5.50;72.20
51661;DHT22;37741;49.748;8.490;2023-04-03T09:23:46;5.50;72.30
51661;DHT22;37741;49.748;8.490;2023-04-03T09:26:19;5.50;72.20
51661;DHT22;37741;49.748;8.490;2023-04-03T09:28:46;5.50;72.10
51661;DHT22;37741;49.748;8.490;2023-04-03T09:31:25;5.50;72.10
51661;DHT22;37741;49.748;8.490;2023-04-03T09:34:01;5.50;72.10
51661;DHT22;37741;49.748;8.490;2023-04-03T09:36:42;5.50;72.10
51661;DHT22;37741;49.748;8.490;2023-04-03T09:39:24;5.60;72.10
51661;DHT22;37741;49.748;8.490;2023-04-03T09:42:25;5.60;72.00
51661;DHT22;37741;49.748;8.490;2023-04-03T09:45:04;5.60;71.60
51661;DHT22;37741;49.748;8.490;2023-04-03T09:47:32;5.60;71.50
51661;DHT22;37741;49.748;8.490;2023-04-03T09:52:44;5.60;70.90
51661;DHT22;37741;49.748;8.490;2023-04-03T09:57:46;5.70;70.90
51661;DHT22;37741;49.748;8.490;2023-04-03T10:02:51;5.80;70.80
51661;DHT22;37741;49.748;8.490;2023-04-03T10:10:36;5.80;71.20
51661;DHT22;37741;49.748;8.490;2023-04-03T10:13:09;5.80;70.70
51661;DHT22;37741;49.748;8.490;2023-04-03T10:15:42;5.80;70.20
51661;DHT22;37741;49.748;8.490;2023-04-03T10:18:33;5.80;70.40
51661;DHT22;37741;49.748;8.490;2023-04-03T10:21:23;5.90;70.00
51661;DHT22;37741;49.748;8.490;2023-04-03T10:26:59;6.00;69.60
51661;DHT22;37741;49.748;8.490;2023-04-03T10:32:35;6.00;69.40
51661;DHT22;37741;49.748;8.490;2023-04-03T10:38:16;6.00;69.20
51661;DHT22;37741;49.748;8.490;2023-04-03T10:41:06;6.10;69.10
51661;DHT22;37741;49.748;8.490;2023-04-03T10:43:42;6.10;69.20
51661;DHT22;37741;49.748;8.490;2023-04-03T10:46:16;6.20;68.90
51661;DHT22;37741;49.748;8.490;2023-04-03T10:49:05;6.20;69.00
51661;DHT22;37741;49.748;8.490;2023-04-03T10:54:25;6.30;68.40
51661;DHT22;37741;49.748;8.490;2023-04-03T10:57:02;6.30;68.30
51661;DHT22;37741;49.748;8.490;2023-04-03T10:59:46;6.30;68.60
51661;DHT22;37741;49.748;8.490;2023-04-03T11:02:32;6.30;68.60
51661;DHT22;37741;49.748;8.490;2023-04-03T11:05:13;6.40;68.40
51661;DHT22;37741;49.748;8.490;2023-04-03T11:07:53;6.40;68.10
51661;DHT22;37741;49.748;8.490;2023-04-03T11:10:42;6.40;68.20
51661;DHT22;37741;49.748;8.490;2023-04-03T11:13:16;6.50;68.00
51661;DHT22;37741;49.748;8.490;2023-04-03T11:15:43;6.50;68.00
51661;DHT22;37741;49.748;8.490;2023-04-03T11:18:17;6.50;68.10
51661;DHT22;37741;49.748;8.490;2023-04-03T11:21:02;6.60;68.10
51661;DHT22;37741;49.748;8.490;2023-04-03T11:23:36;6.60;68.10
51661;DHT22;37741;49.748;8.490;2023-04-03T11:26:11;6.70;67.60
51661;DHT22;37741;49.748;8.490;2023-04-03T11:28:38;6.70;67.40
51661;DHT22;37741;49.748;8.490;2023-04-03T11:36:48;6.80;67.10
51661;DHT22;37741;49.748;8.490;2023-04-03T11:39:28;6.80;67.20
51661;DHT22;37741;49.748;8.490;2023-04-03T11:42:02;6.90;66.90
51661;DHT22;37741;49.748;8.490;2023-04-03T11:44:39;6.90;66.60
51661;DHT22;37741;49.748;8.490;2023-04-03T11:47:06;6.90;66.20
51661;DHT22;37741;49.748;8.490;2023-04-03T11:50:00;7.00;65.70
51661;DHT22;37741;49.748;8.490;2023-04-03T12:00:53;7.10;65.20
51661;DHT22;37741;49.748;8.490;2023-04-03T12:08:27;7.20;65.20
51661;DHT22;37741;49.748;8.490;2023-04-03T12:27:01;7.50;63.70
51661;DHT22;37741;49.748;8.490;2023-04-03T12:40:47;7.70;61.90
51661;DHT22;37741;49.748;8.490;2023-04-03T12:43:34;7.80;61.10
51661;DHT22;37741;49.748;8.490;2023-04-03T12:48:32;7.80;60.50
51661;DHT22;37741;49.748;8.490;2023-04-03T12:51:00;7.90;59.80
51661;DHT22;37741;49.748;8.490;2023-04-03T12:53:32;8.00;59.80
51661;DHT22;37741;49.748;8.490;2023-04-03T12:56:24;8.00;59.50
51661;DHT22;37741;49.748;8.490;2023-04-03T12:58:53;8.00;60.00
51661;DHT22;37741;49.748;8.490;2023-04-03T13:01:26;8.10;58.60
51661;DHT22;37741;49.748;8.490;2023-04-03T13:03:58;8.10;58.30
51661;DHT22;37741;49.748;8.490;2023-04-03T13:06:28;8.20;57.80
51661;DHT22;37741;49.748;8.490;2023-04-03T13:08:58;8.20;59.60
51661;DHT22;37741;49.748;8.490;2023-04-03T13:11:27;8.20;58.80
51661;DHT22;37741;49.748;8.490;2023-04-03T13:14:00;8.30;57.60
51661;DHT22;37741;49.748;8.490;2023-04-03T13:16:26;8.30;57.30
51661;DHT22;37741;49.748;8.490;2023-04-03T13:18:53;8.40;57.00
51661;DHT22;37741;49.748;8.490;2023-04-03T13:21:26;8.40;58.00
51661;DHT22;37741;49.748;8.490;2023-04-03T13:23:57;8.50;57.80
51661;DHT22;37741;49.748;8.490;2023-04-03T13:26:25;8.50;57.40
51661;DHT22;37741;49.748;8.490;2023-04-03T13:28:52;8.60;56.30
51661;DHT22;37741;49.748;8.490;2023-04-03T13:31:27;8.60;55.70
51661;DHT22;37741;49.748;8.490;2023-04-03T13:33:56;8.70;57.20
51661;DHT22;37741;49.748;8.490;2023-04-03T13:36:27;8.70;57.20
51661;DHT22;37741;49.748;8.490;2023-04-03T13:39:20;8.80;60.10
51661;DHT22;37741;49.748;8.490;2023-04-03T13:41:57;8.80;61.10
51661;DHT22;37741;49.748;8.490;2023-04-03T13:44:29;8.80;60.70
51661;DHT22;37741;49.748;8.490;2023-04-03T13:46:58;8.80;59.10
51661;DHT22;37741;49.748;8.490;2023-04-03T13:49:36;8.90;58.60
51661;DHT22;37741;49.748;8.490;2023-04-03T13:55:03;9.00;57.30
51661;DHT22;37741;49.748;8.490;2023-04-03T13:57:37;9.10;58.00
51661;DHT22;37741;49.748;8.490;2023-04-03T14:03:37;9.20;58.50
51661;DHT22;37741;49.748;8.490;2023-04-03T14:06:07;9.30;57.70
51661;DHT22;37741;49.748;8.490;2023-04-03T14:08:34;9.30;57.70
51661;DHT22;37741;49.748;8.490;2023-04-03T14:10:59;9.40;57.80
51661;DHT22;37741;49.748;8.490;2023-04-03T14:13:25;9.50;57.60
51661;DHT22;37741;49.748;8.490;2023-04-03T14:15:51;9.50;57.70
51661;DHT22;37741;49.748;8.490;2023-04-03T14:18:19;9.60;56.40
51661;DHT22;37741;49.748;8.490;2023-04-03T14:20:44;9.60;57.50
51661;DHT22;37741;49.748;8.490;2023-04-03T14:23:10;9.70;56.80
51661;DHT22;37741;49.748;8.490;2023-04-03T14:25:37;9.70;55.80
51661;DHT22;37741;49.748;8.490;2023-04-03T14:28:20;9.80;56.50
51661;DHT22;37741;49.748;8.490;2023-04-03T14:30:48;9.80;55.90
51661;DHT22;37741;49.748;8.490;2023-04-03T14:33:19;9.90;55.70
51661;DHT22;37741;49.748;8.490;2023-04-03T14:35:46;9.90;55.50
51661;DHT22;37741;49.748;8.490;2023-04-03T14:38:27;10.00;55.80
51661;DHT22;37741;49.748;8.490;2023-04-03T14:40:54;10.10;55.40
51661;DHT22;37741;49.748;8.490;2023-04-03T14:43:22;10.10;55.20
51661;DHT22;37741;49.748;8.490;2023-04-03T14:45:49;10.20;54.50
51661;DHT22;37741;49.748;8.490;2023-04-03T14:48:23;10.30;54.30
51661;DHT22;37741;49.748;8.490;2023-04-03T14:50:51;10.30;54.70
51661;DHT22;37741;49.748;8.490;2023-04-03T14:53:18;10.40;54.30
51661;DHT22;37741;49.748;8.490;2023-04-03T14:55:48;10.50;53.90
51661;DHT22;37741;49.748;8.490;2023-04-03T14:58:18;10.60;53.40
51661;DHT22;37741;49.748;8.490;2023-04-03T15:00:44;10.70;53.20
51661;DHT22;37741;49.748;8.490;2023-04-03T15:03:18;10.70;53.40
51661;DHT22;37741;49.748;8.490;2023-04-03T15:05:46;10.80;52.90
51661;DHT22;37741;49.748;8.490;2023-04-03T15:10:43;11.00;48.50
51661;DHT22;37741;49.748;8.490;2023-04-03T15:13:12;11.20;48.10
51661;DHT22;37741;49.748;8.490;2023-04-03T15:15:38;11.40;47.70
51661;DHT22;37741;49.748;8.490;2023-04-03T15:18:04;11.50;47.10
51661;DHT22;37741;49.748;8.490;2023-04-03T15:20:30;11.70;46.10
51661;DHT22;37741;49.748;8.490;2023-04-03T15:22:56;11.80;46.20
51661;DHT22;37741;49.748;8.490;2023-04-03T15:25:22;11.90;45.40
51661;DHT22;37741;49.748;8.490;2023-04-03T15:27:48;12.00;46.10
51661;DHT22;37741;49.748;8.490;2023-04-03T15:30:17;12.10;45.10
51661;DHT22;37741;49.748;8.490;2023-04-03T15:32:43;12.20;44.20
51661;DHT22;37741;49.748;8.490;2023-04-03T15:35:08;12.30;44.80
51661;DHT22;37741;49.748;8.490;2023-04-03T15:37:34;12.40;44.20
51661;DHT22;37741;49.748;8.490;2023-04-03T15:40:00;12.40;44.90
51661;DHT22;37741;49.748;8.490;2023-04-03T15:42:26;12.50;45.20
51661;DHT22;37741;49.748;8.490;2023-04-03T15:44:52;12.60;44.30
51661;DHT22;37741;49.748;8.490;2023-04-03T15:47:17;12.60;43.50
51661;DHT22;37741;49.748;8.490;2023-04-03T15:49:43;12.50;43.10
51661;DHT22;37741;49.748;8.490;2023-04-03T15:52:09;12.40;43.10
51661;DHT22;37741;49.748;8.490;2023-04-03T15:54:35;12.40;43.30
51661;DHT22;37741;49.748;8.490;2023-04-03T15:57:03;12.40;45.40
51661;DHT22;37741;49.748;8.490;2023-04-03T15:59:28;12.30;44.40
51661;DHT22;37741;49.748;8.490;2023-04-03T16:01:56;12.40;44.60
51661;DHT22;37741;49.748;8.490;2023-04-03T16:04:22;12.50;44.30
51661;DHT22;37741;49.748;8.490;2023-04-03T16:06:48;12.50;43.70
51661;DHT22;37741;49.748;8.490;2023-04-03T16:09:14;12.60;43.50
51661;DHT22;37741;49.748;8.490;2023-04-03T16:11:40;12.60;43.70
51661;DHT22;37741;49.748;8.490;2023-04-03T16:14:07;12.70;43.40
51661;DHT22;37741;49.748;8.490;2023-04-03T16:16:33;12.70;43.30
51661;DHT22;37741;49.748;8.490;2023-04-03T16:18:58;12.80;43.30
51661;DHT22;37741;49.748;8.490;2023-04-03T16:21:24;12.80;42.70
51661;DHT22;37741;49.748;8.490;2023-04-03T16:23:50;12.70;42.60
51661;DHT22;37741;49.748;8.490;2023-04-03T16:26:16;12.80;43.20
51661;DHT22;37741;49.748;8.490;2023-04-03T16:28:43;12.80;43.00
51661;DHT22;37741;49.748;8.490;2023-04-03T16:31:09;12.80;42.10
51661;DHT22;37741;49.748;8.490;2023-04-03T16:33:35;12.80;43.40
51661;DHT22;37741;49.748;8.490;2023-04-03T16:36:03;12.70;43.50
51661;DHT22;37741;49.748;8.490;2023-04-03T16:38:29;12.70;43.80
51661;DHT22;37741;49.748;8.490;2023-04-03T16:40:54;12.70;43.30
51661;DHT22;37741;49.748;8.490;2023-04-03T16:43:22;12.60;43.60
51661;DHT22;37741;49.748;8.490;2023-04-03T16:45:48;12.60;43.30
51661;DHT22;37741;49.748;8.490;2023-04-03T16:48:14;12.60;43.30
51661;DHT22;37741;49.748;8.490;2023-04-03T16:50:39;12.60;43.60
51661;DHT22;37741;49.748;8.490;2023-04-03T16:53:05;12.50;44.10
51661;DHT22;37741;49.748;8.490;2023-04-03T16:55:35;12.50;44.50
51661;DHT22;37741;49.748;8.490;2023-04-03T16:58:01;12.50;44.20
51661;DHT22;37741;49.748;8.490;2023-04-03T17:00:29;12.50;43.90
51661;DHT22;37741;49.748;8.490;2023-04-03T17:02:55;12.50;44.10
51661;DHT22;37741;49.748;8.490;2023-04-03T17:05:20;12.50;43.80
51661;DHT22;37741;49.748;8.490;2023-04-03T17:07:46;12.50;44.00
51661;DHT22;37741;49.748;8.490;2023-04-03T17:10:12;12.50;44.50
51661;DHT22;37741;49.748;8.490;2023-04-03T17:12:38;12.50;44.30
51661;DHT22;37741;49.748;8.490;2023-04-03T17:15:04;12.50;44.40
51661;DHT22;37741;49.748;8.490;2023-04-03T17:17:30;12.50;44.20
51661;DHT22;37741;49.748;8.490;2023-04-03T17:19:56;12.50;44.40
51661;DHT22;37741;49.748;8.490;2023-04-03T17:22:22;12.50;44.20
51661;DHT22;37741;49.748;8.490;2023-04-03T17:24:47;12.50;43.90
51661;DHT22;37741;49.748;8.490;2023-04-03T17:27:13;12.50;43.80